Time;durP1;ratioP1;P1;durP2;ratioP2;P2;SDS_P1;SDS_P2;PMS_P1;PMS_P2;Temp;Humidity;BMP_temperature;BMP_pressure;BME280_temperature;BME280_humidity;BME280_pressure;Samples;Min_cycle;Max_cycle;Signal;HPM_P1;HPM_P2
2022/08/31 00:05:56;;;;;;;7.20;4.50;;;19.00;99.90;;;;;;5059655;28;20029;-87
2022/08/31 00:08:23;;;;;;;7.55;3.70;;;18.90;99.90;;;;;;5051135;28;20022;-89
2022/08/31 00:10:49;;;;;;;11.40;4.13;;;18.80;99.90;;;;;;5026400;28;20028;-87
2022/08/31 00:13:16;;;;;;;4.47;3.53;;;18.80;99.90;;;;;;5022397;28;20112;-88
2022/08/31 00:15:42;;;;;;;8.40;4.03;;;18.80;99.90;;;;;;5040237;28;20027;-89
2022/08/31 00:18:09;;;;;;;6.45;3.70;;;18.70;99.90;;;;;;5030988;28;20097;-89
2022/08/31 00:20:35;;;;;;;5.15;3.30;;;18.70;99.90;;;;;;5039009;28;20036;-88
2022/08/31 00:23:06;;;;;;;8.30;3.75;;;18.70;99.90;;;;;;5041303;28;20029;-88
2022/08/31 00:25:33;;;;;;;8.35;3.67;;;18.70;99.90;;;;;;5068504;28;20047;-88
2022/08/31 00:28:00;;;;;;;6.22;3.25;;;18.70;99.90;;;;;;5055397;28;20461;-88
2022/08/31 00:30:28;;;;;;;9.52;4.20;;;18.80;99.90;;;;;;5031111;28;20036;-89
2022/08/31 00:32:54;;;;;;;6.22;3.50;;;18.80;99.90;;;;;;5059973;28;20064;-88
2022/08/31 00:35:21;;;;;;;6.20;3.92;;;18.80;99.90;;;;;;5061723;28;20021;-87
2022/08/31 00:37:46;;;;;;;9.93;3.80;;;18.80;99.90;;;;;;5058066;28;20071;-87
2022/08/31 00:40:13;;;;;;;6.95;3.97;;;18.70;99.90;;;;;;5075276;28;20577;-88
2022/08/31 00:42:39;;;;;;;8.95;3.63;;;18.70;99.90;;;;;;5043583;28;20021;-88
2022/08/31 00:45:08;;;;;;;7.13;3.78;;;18.70;99.90;;;;;;5073003;28;20030;-88
2022/08/31 00:47:35;;;;;;;5.43;3.70;;;18.60;99.90;;;;;;5046608;28;20017;-87
2022/08/31 00:50:05;;;;;;;9.27;3.92;;;18.60;99.90;;;;;;5059079;28;20021;-88
2022/08/31 00:52:35;;;;;;;8.30;3.10;;;18.60;99.90;;;;;;5071599;28;20034;-89
2022/08/31 00:55:08;;;;;;;4.80;3.55;;;18.50;99.90;;;;;;5063312;28;20028;-88
2022/08/31 00:57:38;;;;;;;6.97;3.80;;;18.50;99.90;;;;;;5032622;28;20051;-87
2022/08/31 01:00:09;;;;;;;8.88;3.90;;;18.50;99.90;;;;;;5051193;28;20033;-88
2022/08/31 01:02:34;;;;;;;8.23;3.70;;;18.40;99.90;;;;;;5049975;28;20025;-87
2022/08/31 01:05:01;;;;;;;8.65;4.03;;;18.40;99.90;;;;;;5067311;28;20025;-88
2022/08/31 01:07:28;;;;;;;6.53;4.28;;;18.40;99.90;;;;;;5060769;28;20022;-89
2022/08/31 01:09:55;;;;;;;5.97;4.07;;;18.30;99.90;;;;;;5047990;28;20029;-87
2022/08/31 01:12:22;;;;;;;9.43;4.07;;;18.30;99.90;;;;;;5044193;28;20017;-88
2022/08/31 01:14:48;;;;;;;9.18;4.13;;;18.30;99.90;;;;;;5055120;28;20005;-87
2022/08/31 01:17:16;;;;;;;8.70;4.10;;;18.30;99.90;;;;;;5062142;28;20122;-87
2022/08/31 01:20:10;;;;;;;6.95;4.00;;;18.20;99.90;;;;;;5044159;28;20030;-88
2022/08/31 01:22:47;;;;;;;8.52;3.80;;;18.20;99.90;;;;;;5056270;28;20100;-88
2022/08/31 01:25:14;;;;;;;8.15;4.00;;;18.30;99.90;;;;;;5036999;28;20029;-88
2022/08/31 01:27:40;;;;;;;5.68;4.03;;;18.30;99.90;;;;;;5057964;28;20095;-88
2022/08/31 01:30:09;;;;;;;6.13;3.92;;;18.30;99.90;;;;;;5056973;28;20033;-87
2022/08/31 01:32:36;;;;;;;7.68;4.15;;;18.30;99.90;;;;;;5067861;28;20036;-88
2022/08/31 01:35:03;;;;;;;6.85;3.92;;;18.20;99.90;;;;;;5050166;28;20115;-87
2022/08/31 01:37:30;;;;;;;8.45;4.50;;;18.20;99.90;;;;;;5033972;28;20060;-86
2022/08/31 01:39:56;;;;;;;9.35;3.85;;;18.20;99.90;;;;;;5040614;28;20033;-86
2022/08/31 01:42:22;;;;;;;5.22;3.65;;;18.20;99.90;;;;;;5074079;28;20024;-87
2022/08/31 01:44:48;;;;;;;6.55;3.40;;;18.20;99.90;;;;;;5061503;28;20017;-87
2022/08/31 01:47:14;;;;;;;6.32;4.38;;;18.40;99.90;;;;;;5056337;28;20040;-89
2022/08/31 01:49:39;;;;;;;11.85;4.30;;;18.40;99.90;;;;;;5041795;28;20157;-89
2022/08/31 01:52:06;;;;;;;10.45;4.40;;;18.40;99.90;;;;;;5025953;28;20029;-88
2022/08/31 01:54:33;;;;;;;10.98;4.97;;;18.40;99.90;;;;;;5039980;28;20033;-88
2022/08/31 01:57:00;;;;;;;6.50;4.13;;;18.30;99.90;;;;;;5045351;28;20065;-88
2022/08/31 01:59:46;;;;;;;6.57;4.40;;;18.30;99.90;;;;;;5071978;28;20028;-89
2022/08/31 02:02:51;;;;;;;5.38;3.90;;;18.20;99.90;;;;;;5067728;28;20038;-88
2022/08/31 02:05:18;;;;;;;5.05;4.15;;;18.10;99.90;;;;;;5057816;28;20037;-88
2022/08/31 02:07:45;;;;;;;6.40;3.90;;;18.10;99.90;;;;;;5058523;28;20017;-88
2022/08/31 02:10:11;;;;;;;5.40;3.92;;;18.10;99.90;;;;;;5042230;28;20040;-88
2022/08/31 02:12:37;;;;;;;9.50;4.72;;;18.10;99.90;;;;;;5042488;28;20081;-88
2022/08/31 02:15:07;;;;;;;12.65;5.28;;;18.20;99.90;;;;;;5027931;28;20022;-90
2022/08/31 02:17:33;;;;;;;7.07;3.88;;;18.20;99.90;;;;;;5060196;28;20035;-90
2022/08/31 02:20:05;;;;;;;10.80;4.03;;;18.20;99.90;;;;;;5041599;28;20099;-88
2022/08/31 02:22:31;;;;;;;6.47;4.43;;;18.30;99.90;;;;;;5059092;28;20037;-89
2022/08/31 02:24:57;;;;;;;5.20;4.10;;;18.30;99.90;;;;;;5055574;22;20042;-80
2022/08/31 02:27:24;;;;;;;6.25;4.82;;;18.20;99.90;;;;;;5007788;28;20113;-80
2022/08/31 02:29:50;;;;;;;5.95;4.05;;;18.20;99.90;;;;;;4995817;28;20022;-79
2022/08/31 02:32:16;;;;;;;7.93;4.55;;;18.30;99.90;;;;;;4998569;28;20674;-80
2022/08/31 02:34:43;;;;;;;6.70;3.78;;;18.30;99.90;;;;;;4998057;28;20053;-80
2022/08/31 02:37:10;;;;;;;7.65;4.15;;;18.20;99.90;;;;;;4982788;28;20105;-80
2022/08/31 02:39:36;;;;;;;7.03;4.18;;;18.20;99.90;;;;;;4997479;28;20494;-79
2022/08/31 02:42:03;;;;;;;7.75;4.43;;;18.20;99.90;;;;;;5000723;28;20273;-78
2022/08/31 02:44:29;;;;;;;6.57;3.83;;;18.30;99.90;;;;;;5026610;28;20026;-77
2022/08/31 02:46:55;;;;;;;11.85;4.22;;;18.30;99.90;;;;;;5010080;28;20014;-82
2022/08/31 02:49:41;;;;;;;7.57;4.35;;;18.30;99.90;;;;;;5022143;28;20124;-79
2022/08/31 02:52:07;;;;;;;7.35;4.22;;;18.20;99.90;;;;;;4999106;28;20054;-79
2022/08/31 02:54:33;;;;;;;8.93;4.65;;;18.20;99.90;;;;;;4998330;28;20117;-81
2022/08/31 02:56:59;;;;;;;7.45;4.60;;;18.10;99.90;;;;;;5016781;28;20040;-80
2022/08/31 02:59:25;;;;;;;6.60;4.22;;;18.20;99.90;;;;;;5015188;28;20052;-79
2022/08/31 03:01:52;;;;;;;11.05;4.60;;;18.20;99.90;;;;;;4996449;28;20025;-79
2022/08/31 03:04:18;;;;;;;6.22;4.45;;;18.30;99.90;;;;;;4997308;28;20022;-80
2022/08/31 03:06:46;;;;;;;5.95;3.72;;;18.30;99.90;;;;;;4996563;28;20113;-80
2022/08/31 03:09:14;;;;;;;5.07;3.90;;;18.30;99.90;;;;;;4996736;28;20088;-79
2022/08/31 03:11:40;;;;;;;11.00;4.70;;;18.50;99.90;;;;;;4997405;28;20033;-80
2022/08/31 03:14:07;;;;;;;10.45;3.65;;;18.50;99.90;;;;;;4997367;28;20032;-80
2022/08/31 03:16:33;;;;;;;9.02;3.92;;;18.50;99.90;;;;;;5001043;28;20041;-79
2022/08/31 03:19:00;;;;;;;6.53;4.07;;;18.80;99.90;;;;;;4988118;28;20497;-80
2022/08/31 03:21:25;;;;;;;6.10;4.00;;;19.00;99.90;;;;;;5025931;28;20025;-80
2022/08/31 03:23:51;;;;;;;7.40;4.10;;;19.20;99.90;;;;;;5003141;28;20025;-79
2022/08/31 03:26:17;;;;;;;8.65;3.92;;;19.20;99.90;;;;;;5002767;28;20030;-78
2022/08/31 03:28:43;;;;;;;5.00;3.83;;;19.30;99.90;;;;;;5003798;28;20117;-79
2022/08/31 03:31:35;;;;;;;7.75;4.40;;;19.30;99.90;;;;;;4997933;28;20033;-77
2022/08/31 03:34:02;;;;;;;7.95;3.92;;;19.30;99.90;;;;;;5004847;28;20106;-80
2022/08/31 03:36:28;;;;;;;5.28;3.63;;;19.30;99.90;;;;;;5003421;28;20090;-79
2022/08/31 03:38:54;;;;;;;6.80;3.88;;;19.30;99.90;;;;;;4986781;28;20068;-80
2022/08/31 03:41:23;;;;;;;9.43;3.95;;;19.30;99.90;;;;;;5005152;28;20025;-80
2022/08/31 03:43:49;;;;;;;5.63;4.13;;;19.50;99.90;;;;;;5000062;28;20489;-81
2022/08/31 03:46:16;;;;;;;6.32;3.60;;;19.50;99.90;;;;;;4995937;28;20105;-81
2022/08/31 03:48:46;;;;;;;6.43;3.75;;;19.50;99.90;;;;;;4995532;28;20049;-81
2022/08/31 03:51:14;;;;;;;8.45;4.05;;;19.60;99.90;;;;;;4997281;28;20098;-81
2022/08/31 03:53:41;;;;;;;8.00;4.10;;;19.70;99.90;;;;;;4999146;28;20234;-81
2022/08/31 03:56:08;;;;;;;6.40;3.60;;;19.70;99.90;;;;;;4999693;28;20026;-81
2022/08/31 03:58:37;;;;;;;11.15;4.00;;;19.80;99.90;;;;;;5001774;28;20037;-83
2022/08/31 04:01:06;;;;;;;7.97;4.10;;;19.70;99.90;;;;;;5009387;28;20049;-78
2022/08/31 04:03:58;;;;;;;5.50;4.00;;;19.60;99.90;;;;;;5021987;28;20026;-80
2022/08/31 04:06:46;;;;;;;8.90;4.53;;;19.40;99.90;;;;;;5014926;28;20058;-80
2022/08/31 04:09:35;;;;;;;10.55;5.63;;;19.20;99.90;;;;;;4987953;28;20552;-81
2022/08/31 04:12:36;;;;;;;10.90;4.65;;;18.90;99.90;;;;;;4953698;29;20110;-81
2022/08/31 04:15:10;;;;;;;7.97;4.70;;;18.70;99.90;;;;;;4984681;28;20038;-81
2022/08/31 04:17:55;;;;;;;7.73;4.73;;;18.50;99.90;;;;;;5014975;28;20559;-80
2022/08/31 04:20:50;;;;;;;9.73;5.25;;;18.40;99.90;;;;;;5005838;28;20277;-80
2022/08/31 04:23:16;;;;;;;6.90;4.72;;;18.30;99.90;;;;;;4984793;28;20037;-81
2022/08/31 04:25:48;;;;;;;9.55;5.03;;;18.20;99.90;;;;;;4989533;28;20441;-80
2022/08/31 04:28:14;;;;;;;10.98;5.32;;;18.20;99.90;;;;;;5019735;28;20026;-80
2022/08/31 04:30:42;;;;;;;7.32;4.97;;;18.10;99.90;;;;;;5002929;28;20117;-81
2022/08/31 04:33:10;;;;;;;16.17;4.80;;;18.10;99.90;;;;;;4997145;28;20108;-80
2022/08/31 04:35:39;;;;;;;7.05;4.68;;;18.10;99.90;;;;;;5014593;28;20408;-81
2022/08/31 04:38:05;;;;;;;11.07;5.05;;;18.10;99.90;;;;;;4999853;28;20026;-78
2022/08/31 04:40:31;;;;;;;8.30;4.93;;;18.20;99.90;;;;;;5016916;28;20029;-81
2022/08/31 04:42:58;;;;;;;7.65;4.88;;;18.20;99.90;;;;;;4999863;28;20025;-79
2022/08/31 04:45:24;;;;;;;11.23;5.63;;;18.20;99.90;;;;;;5000106;28;20405;-79
2022/08/31 04:47:51;;;;;;;8.95;4.55;;;18.20;99.90;;;;;;5017287;28;20037;-78
2022/08/31 04:50:18;;;;;;;12.85;5.10;;;18.20;99.90;;;;;;5019261;28;20084;-79
2022/08/31 04:53:13;;;;;;;10.90;5.35;;;18.20;99.90;;;;;;4992751;28;20080;-82
2022/08/31 04:55:40;;;;;;;10.50;5.07;;;18.20;99.90;;;;;;4991998;28;20491;-81
2022/08/31 04:58:07;;;;;;;13.82;5.47;;;18.30;99.90;;;;;;4997348;28;20022;-82
2022/08/31 05:00:34;;;;;;;11.35;5.18;;;18.30;99.90;;;;;;4990044;28;20034;-80
2022/08/31 05:03:23;;;;;;;9.45;5.10;;;18.40;99.90;;;;;;4993684;28;20030;-81
2022/08/31 05:05:52;;;;;;;9.00;4.88;;;18.50;99.90;;;;;;4997627;28;20037;-80
2022/08/31 05:08:19;;;;;;;8.23;5.75;;;18.60;99.90;;;;;;4997403;28;20025;-81
2022/08/31 05:10:46;;;;;;;8.57;4.97;;;18.70;99.90;;;;;;5003023;28;20030;-82
2022/08/31 05:13:12;;;;;;;8.38;5.18;;;18.70;99.90;;;;;;4995501;28;20022;-80
2022/08/31 05:15:43;;;;;;;9.77;4.95;;;18.90;99.90;;;;;;5016418;28;20113;-82
2022/08/31 05:18:11;;;;;;;10.35;5.47;;;19.20;99.90;;;;;;5011928;28;20022;-84
2022/08/31 05:20:42;;;;;;;12.75;4.95;;;19.30;99.90;;;;;;5005916;28;20026;-83
2022/08/31 05:23:08;;;;;;;19.17;4.90;;;19.50;99.90;;;;;;5001183;28;20486;-81
2022/08/31 05:25:38;;;;;;;10.48;4.97;;;19.70;99.90;;;;;;5001174;28;20065;-82
2022/08/31 05:28:04;;;;;;;10.80;5.28;;;19.90;99.90;;;;;;4984734;28;20034;-82
2022/08/31 05:30:30;;;;;;;10.02;5.30;;;20.10;99.90;;;;;;5001054;28;20084;-81
2022/08/31 05:33:07;;;;;;;12.18;5.03;;;20.00;99.90;;;;;;5000029;28;20113;-81
2022/08/31 05:35:33;;;;;;;9.90;5.03;;;20.20;99.90;;;;;;5000524;28;20117;-82
2022/08/31 05:37:59;;;;;;;8.85;5.15;;;20.30;99.90;;;;;;5001666;28;20460;-87
2022/08/31 05:40:26;;;;;;;9.98;4.78;;;20.40;99.90;;;;;;5003330;28;20037;-81
2022/08/31 05:42:52;;;;;;;12.13;5.18;;;20.50;99.90;;;;;;5000853;28;20052;-80
2022/08/31 05:45:18;;;;;;;7.13;4.88;;;20.60;99.90;;;;;;5001768;28;20083;-84
2022/08/31 05:47:45;;;;;;;9.70;4.57;;;20.70;99.90;;;;;;5000985;28;20022;-82
2022/08/31 05:50:12;;;;;;;8.73;4.35;;;20.90;99.90;;;;;;5000516;28;20052;-82
2022/08/31 05:52:40;;;;;;;12.82;5.03;;;21.10;99.90;;;;;;4988405;28;20090;-83
2022/08/31 05:55:06;;;;;;;9.48;3.97;;;21.20;99.90;;;;;;5000984;28;20058;-83
2022/08/31 05:57:32;;;;;;;8.40;4.68;;;21.30;99.90;;;;;;5000754;28;20113;-84
2022/08/31 05:59:58;;;;;;;10.40;4.10;;;21.40;99.90;;;;;;5019434;28;20054;-84
2022/08/31 06:02:25;;;;;;;7.38;4.32;;;21.60;99.90;;;;;;5000611;28;20080;-82
2022/08/31 06:04:55;;;;;;;5.47;4.10;;;21.60;99.90;;;;;;5001476;28;20058;-83
2022/08/31 06:07:21;;;;;;;18.23;4.43;;;21.70;99.90;;;;;;5001050;28;20442;-81
2022/08/31 06:09:53;;;;;;;8.25;4.68;;;21.80;99.90;;;;;;5000486;28;20068;-82
2022/08/31 06:12:24;;;;;;;10.00;5.22;;;21.80;99.90;;;;;;5004273;28;20022;-84
2022/08/31 06:14:50;;;;;;;9.65;4.80;;;21.80;99.90;;;;;;5012868;28;20041;-85
2022/08/31 06:17:16;;;;;;;8.73;4.88;;;21.70;99.90;;;;;;5037840;28;20010;-84
2022/08/31 06:19:42;;;;;;;7.90;4.60;;;21.70;99.90;;;;;;5009411;28;20030;-84
2022/08/31 06:22:10;;;;;;;6.88;4.28;;;21.60;99.90;;;;;;4994886;28;20049;-84
2022/08/31 06:24:36;;;;;;;9.57;5.15;;;21.70;99.90;;;;;;5021425;28;20034;-85
2022/08/31 06:27:04;;;;;;;10.52;4.80;;;21.80;99.90;;;;;;5020701;28;20113;-86
2022/08/31 06:29:32;;;;;;;16.48;6.05;;;21.80;99.90;;;;;;5007308;28;20093;-82
2022/08/31 06:32:04;;;;;;;8.55;4.85;;;21.80;99.90;;;;;;5012300;28;20029;-82
2022/08/31 06:34:32;;;;;;;10.93;4.97;;;21.70;99.90;;;;;;5029284;28;20022;-81
2022/08/31 06:36:59;;;;;;;12.27;5.30;;;21.80;99.90;;;;;;5019388;28;20304;-82
2022/08/31 06:39:52;;;;;;;6.55;4.60;;;21.70;99.90;;;;;;5003062;28;20109;-81
2022/08/31 06:42:44;;;;;;;12.57;4.90;;;21.80;99.90;;;;;;4994155;28;20033;-81
2022/08/31 06:45:10;;;;;;;5.70;4.05;;;21.70;99.90;;;;;;5030470;28;20037;-82
2022/08/31 06:48:03;;;;;;;13.73;5.00;;;21.60;99.90;;;;;;5018072;28;20109;-82
2022/08/31 06:50:29;;;;;;;10.27;4.70;;;21.60;99.90;;;;;;5001436;28;20052;-83
2022/08/31 06:52:56;;;;;;;11.63;4.63;;;21.60;99.90;;;;;;4986031;28;20054;-83
2022/08/31 06:55:29;;;;;;;8.85;4.68;;;21.60;99.90;;;;;;5001937;28;20386;-84
2022/08/31 06:58:14;;;;;;;9.25;4.47;;;21.60;99.90;;;;;;5019470;28;20456;-82
2022/08/31 07:01:14;;;;;;;8.63;4.75;;;21.70;99.90;;;;;;4994095;28;20120;-84
2022/08/31 07:04:05;;;;;;;8.52;4.45;;;21.60;99.90;;;;;;4998898;28;20064;-82
2022/08/31 07:06:35;;;;;;;6.65;3.95;;;21.70;99.90;;;;;;4990259;28;20022;-83
2022/08/31 07:09:03;;;;;;;8.45;4.40;;;21.80;99.90;;;;;;4974519;28;20061;-84
2022/08/31 07:11:34;;;;;;;7.03;4.60;;;21.80;99.90;;;;;;4992081;28;20077;-84
2022/08/31 07:14:02;;;;;;;6.57;4.88;;;21.80;99.90;;;;;;5007289;28;20082;-84
2022/08/31 07:16:30;;;;;;;12.65;4.60;;;21.90;99.90;;;;;;5006788;28;20031;-83
2022/08/31 07:18:59;;;;;;;7.55;5.00;;;21.90;99.90;;;;;;4987556;28;20030;-82
2022/08/31 07:21:29;;;;;;;6.13;4.25;;;21.80;99.90;;;;;;4995413;28;20022;-83
2022/08/31 07:23:58;;;;;;;8.05;4.85;;;21.70;99.90;;;;;;4995484;28;20114;-80
2022/08/31 07:26:31;;;;;;;8.75;4.25;;;21.80;99.90;;;;;;5011329;28;20042;-82
2022/08/31 07:28:58;;;;;;;7.07;4.43;;;21.80;99.90;;;;;;4994701;28;20065;-80
2022/08/31 07:31:42;;;;;;;9.20;4.40;;;21.80;99.90;;;;;;4994940;28;20045;-83
2022/08/31 07:34:09;;;;;;;13.15;4.75;;;21.90;99.90;;;;;;4978343;28;20066;-81
2022/08/31 07:42:22;;;;;;;6.85;4.57;;;22.20;99.90;;;;;;4987081;28;20034;-83
2022/08/31 07:44:50;;;;;;;9.10;4.88;;;22.30;99.90;;;;;;4984776;28;20097;-83
2022/08/31 07:47:19;;;;;;;7.88;4.63;;;22.30;99.90;;;;;;4987084;28;20022;-84
2022/08/31 07:49:49;;;;;;;10.30;5.13;;;22.40;99.90;;;;;;4992960;28;20042;-83
2022/08/31 07:52:53;;;;;;;7.68;4.45;;;22.50;99.90;;;;;;5001714;28;20023;-82
2022/08/31 07:55:38;;;;;;;8.80;4.35;;;22.80;99.90;;;;;;5001354;28;20134;-83
2022/08/31 07:58:12;;;;;;;10.68;4.85;;;23.00;99.90;;;;;;4967262;28;20030;-82
2022/08/31 08:00:38;;;;;;;11.00;4.90;;;23.30;99.90;;;;;;4982908;28;20030;-82
2022/08/31 08:03:09;;;;;;;11.18;4.70;;;23.30;99.90;;;;;;4996902;28;20035;-83
2022/08/31 08:05:55;;;;;;;11.15;5.30;;;23.30;99.90;;;;;;5010099;28;20106;-83
2022/08/31 08:08:41;;;;;;;11.20;5.27;;;23.50;99.90;;;;;;4983719;28;20034;-82
2022/08/31 08:11:23;;;;;;;11.65;4.90;;;23.50;99.90;;;;;;4990566;28;20276;-81
2022/08/31 08:14:18;;;;;;;9.02;4.97;;;23.40;99.90;;;;;;4980622;28;20030;-82
2022/08/31 08:16:53;;;;;;;8.45;5.53;;;23.40;99.90;;;;;;4993643;28;20026;-83
2022/08/31 08:19:42;;;;;;;11.63;5.95;;;23.70;99.90;;;;;;5007830;28;20189;-81
2022/08/31 08:22:08;;;;;;;10.25;5.55;;;23.80;99.90;;;;;;4992036;28;20063;-81
2022/08/31 08:27:35;;;;;;;8.63;4.47;;;24.10;99.90;;;;;;5033306;28;20052;-81
2022/08/31 08:30:13;;;;;;;8.43;4.18;;;24.20;99.90;;;;;;5018322;28;20030;-81
2022/08/31 08:32:41;;;;;;;6.40;4.10;;;24.10;99.90;;;;;;5018065;28;20125;-79
2022/08/31 08:35:11;;;;;;;7.75;4.65;;;24.20;99.90;;;;;;5016603;28;20037;-81
2022/08/31 08:37:41;;;;;;;7.30;4.88;;;24.20;99.90;;;;;;5001507;28;20037;-83
2022/08/31 08:40:14;;;;;;;8.57;3.97;;;24.40;99.90;;;;;;5022888;28;20014;-85
2022/08/31 08:42:41;;;;;;;9.15;4.60;;;24.60;99.90;;;;;;5019426;28;20027;-81
2022/08/31 08:45:09;;;;;;;6.15;4.18;;;25.00;99.90;;;;;;5020484;28;20037;-83
2022/08/31 08:47:37;;;;;;;6.45;4.35;;;25.00;99.90;;;;;;5023693;28;20022;-81
2022/08/31 08:50:05;;;;;;;8.43;4.55;;;25.50;99.90;;;;;;5023511;28;20030;-81
2022/08/31 08:52:44;;;;;;;7.13;4.30;;;25.20;99.90;;;;;;5024012;28;20031;-80
2022/08/31 08:55:20;;;;;;;9.63;5.38;;;25.20;99.90;;;;;;5023981;28;20030;-81
2022/08/31 08:57:50;;;;;;;11.55;4.97;;;25.30;99.90;;;;;;5023561;28;20032;-81
2022/08/31 09:00:23;;;;;;;8.18;5.10;;;25.20;99.90;;;;;;5022799;28;20018;-83
2022/08/31 09:03:11;;;;;;;12.50;5.55;;;25.20;99.80;;;;;;5023040;28;20048;-82
2022/08/31 09:05:54;;;;;;;24.65;9.73;;;25.30;99.90;;;;;;5039412;28;20033;-82
2022/08/31 09:08:42;;;;;;;8.45;4.68;;;25.60;99.30;;;;;;5021352;28;20097;-83
2022/08/31 09:11:31;;;;;;;8.88;4.50;;;25.90;98.60;;;;;;5021838;28;20041;-81
2022/08/31 09:14:05;;;;;;;7.70;4.20;;;25.90;98.30;;;;;;5022177;28;20022;-81
2022/08/31 09:16:50;;;;;;;5.13;3.78;;;26.10;98.00;;;;;;5022260;28;20033;-81
2022/08/31 09:19:18;;;;;;;11.40;4.40;;;26.30;97.50;;;;;;5021807;28;20037;-81
2022/08/31 09:21:54;;;;;;;8.43;4.25;;;26.30;97.70;;;;;;5021149;28;20026;-83
2022/08/31 09:24:26;;;;;;;10.95;4.53;;;26.40;97.30;;;;;;5035260;28;20298;-83
2022/08/31 09:27:46;;;;;;;7.68;4.25;;;26.50;97.10;;;;;;5030436;28;20080;-82
2022/08/31 09:30:43;;;;;;;9.27;4.30;;;26.60;96.70;;;;;;5029156;28;20103;-82
2022/08/31 09:33:25;;;;;;;7.60;4.25;;;26.70;96.40;;;;;;5028418;28;20034;-83
2022/08/31 09:35:57;;;;;;;5.97;3.65;;;27.10;95.50;;;;;;5027031;28;20047;-83
2022/08/31 09:38:42;;;;;;;8.90;4.22;;;27.50;95.10;;;;;;5025845;28;20041;-82
2022/08/31 09:41:31;;;;;;;8.23;4.40;;;28.60;93.80;;;;;;5025564;28;20038;-83
2022/08/31 09:44:22;;;;;;;10.10;3.80;;;28.90;93.20;;;;;;5008440;28;20049;-84
2022/08/31 09:46:55;;;;;;;6.97;3.88;;;29.10;92.30;;;;;;5016538;28;20042;-81
2022/08/31 09:49:25;;;;;;;6.95;3.88;;;29.20;91.80;;;;;;5022904;28;20034;-83
2022/08/31 09:51:51;;;;;;;7.00;4.65;;;29.40;91.30;;;;;;5022781;28;20026;-83
2022/08/31 09:57:08;;;;;;;6.55;4.07;;;30.10;90.10;;;;;;5011560;28;20037;-83
2022/08/31 09:59:43;;;;;;;6.18;4.57;;;30.00;88.60;;;;;;5032159;28;20052;-82
2022/08/31 10:02:35;;;;;;;7.32;3.72;;;29.90;88.10;;;;;;5033424;28;20034;-82
2022/08/31 10:05:05;;;;;;;6.78;3.92;;;29.50;87.90;;;;;;5022061;28;20443;-83
2022/08/31 10:07:55;;;;;;;7.63;3.90;;;28.90;88.60;;;;;;5030745;28;20025;-84
2022/08/31 10:10:28;;;;;;;6.13;3.75;;;28.70;90.10;;;;;;5020105;28;20029;-83
2022/08/31 10:13:04;;;;;;;7.10;3.83;;;29.10;88.80;;;;;;5019943;28;20038;-84
2022/08/31 10:15:34;;;;;;;9.98;3.88;;;29.10;87.70;;;;;;5021944;28;20030;-85
2022/08/31 10:18:13;;;;;;;6.10;3.67;;;28.80;88.00;;;;;;5020118;28;20506;-82
2022/08/31 10:21:20;;;;;;;5.82;3.70;;;29.00;86.90;;;;;;5029701;28;20532;-80
2022/08/31 10:24:04;;;;;;;4.47;3.22;;;29.60;86.30;;;;;;4970423;28;20114;-83
2022/08/31 10:26:45;;;;;;;7.07;3.63;;;30.60;84.20;;;;;;5028508;28;20046;-81
2022/08/31 10:29:23;;;;;;;6.20;3.30;;;30.70;83.20;;;;;;5014546;28;20090;-83
2022/08/31 10:31:54;;;;;;;13.07;3.95;;;31.50;82.10;;;;;;5029978;28;20034;-83
2022/08/31 10:37:59;;;;;;;5.07;3.70;;;31.90;80.10;;;;;;4984893;28;20092;-82
2022/08/31 10:40:32;;;;;;;8.02;3.30;;;31.80;79.30;;;;;;4982561;28;20066;-82
2022/08/31 10:43:20;;;;;;;12.18;3.42;;;31.80;78.20;;;;;;4992963;28;20061;-84
2022/08/31 10:45:50;;;;;;;4.78;3.08;;;31.40;78.20;;;;;;5024112;28;20092;-84
2022/08/31 10:48:19;;;;;;;4.28;3.35;;;31.10;78.10;;;;;;5022151;28;20064;-84
2022/08/31 10:51:16;;;;;;;7.50;3.03;;;31.20;77.70;;;;;;5004246;28;20595;-84
2022/08/31 10:54:11;;;;;;;5.68;2.70;;;30.90;75.90;;;;;;5020134;28;20045;-84
2022/08/31 10:56:49;;;;;;;5.72;3.00;;;30.90;76.10;;;;;;5020535;28;20060;-82
2022/08/31 10:59:41;;;;;;;6.45;3.40;;;30.80;75.60;;;;;;5019663;28;20040;-83
2022/08/31 11:02:25;;;;;;;4.55;2.97;;;30.20;75.70;;;;;;5026541;28;20034;-81
2022/08/31 11:05:02;;;;;;;7.88;2.95;;;29.50;76.80;;;;;;5022471;28;20054;-84
2022/08/31 11:07:48;;;;;;;4.05;2.60;;;29.00;77.30;;;;;;5021518;28;20040;-84
2022/08/31 11:10:26;;;;;;;6.07;3.05;;;28.50;77.70;;;;;;5024993;28;20030;-81
2022/08/31 11:12:59;;;;;;;4.53;2.80;;;28.30;78.60;;;;;;5008804;28;20042;-82
2022/08/31 11:15:37;;;;;;;7.35;3.22;;;28.40;78.70;;;;;;5021253;28;20084;-83
2022/08/31 11:18:18;;;;;;;5.07;3.00;;;28.30;78.90;;;;;;5019599;28;20076;-82
2022/08/31 11:21:07;;;;;;;4.65;2.80;;;28.20;79.60;;;;;;5020499;28;20547;-80
2022/08/31 11:24:00;;;;;;;7.75;2.88;;;28.50;78.50;;;;;;5022238;28;20030;-83
2022/08/31 11:26:39;;;;;;;3.95;2.75;;;28.80;78.00;;;;;;5002099;28;20037;-81
2022/08/31 11:29:33;;;;;;;5.93;2.90;;;29.20;77.60;;;;;;5022289;28;20050;-82
2022/08/31 11:32:09;;;;;;;3.72;2.95;;;29.50;76.70;;;;;;5007324;28;20033;-83
2022/08/31 11:34:57;;;;;;;3.63;2.42;;;29.80;75.10;;;;;;5036018;28;20054;-81
2022/08/31 11:37:51;;;;;;;3.78;2.35;;;30.10;74.30;;;;;;5037817;28;20036;-80
2022/08/31 11:40:40;;;;;;;3.47;2.63;;;30.30;73.20;;;;;;5037312;28;20037;-80
2022/08/31 11:43:32;;;;;;;6.05;2.55;;;30.50;72.60;;;;;;5020504;28;20041;-81
2022/08/31 11:46:27;;;;;;;6.13;2.47;;;31.00;71.80;;;;;;5036788;28;20026;-81
2022/08/31 11:48:53;;;;;;;5.78;2.40;;;31.40;70.60;;;;;;5036518;28;20050;-82
2022/08/31 11:51:31;;;;;;;4.07;2.50;;;31.30;69.80;;;;;;5036800;28;20010;-80
2022/08/31 11:53:58;;;;;;;4.20;2.78;;;31.40;71.00;;;;;;5019734;28;20029;-80
2022/08/31 11:56:35;;;;;;;6.80;2.33;;;31.80;71.30;;;;;;5037165;28;20010;-81
2022/08/31 11:59:34;;;;;;;4.18;2.90;;;32.00;71.00;;;;;;5036903;28;20045;-80
2022/08/31 12:02:21;;;;;;;2.65;2.42;;;32.00;71.10;;;;;;5036826;28;20025;-81
2022/08/31 12:05:04;;;;;;;3.90;2.42;;;31.50;71.30;;;;;;5026900;28;20049;-83
2022/08/31 12:07:32;;;;;;;6.55;2.65;;;31.40;71.30;;;;;;5036784;28;20089;-80
2022/08/31 12:10:04;;;;;;;6.05;2.80;;;31.40;70.70;;;;;;5036978;28;20030;-81
2022/08/31 12:12:54;;;;;;;3.53;2.67;;;31.80;70.50;;;;;;5019726;28;20039;-80
2022/08/31 12:15:48;;;;;;;4.60;2.50;;;31.60;69.90;;;;;;5037006;28;20081;-81
2022/08/31 12:18:47;;;;;;;3.17;2.30;;;31.50;69.10;;;;;;5018833;28;20069;-81
2022/08/31 12:24:17;;;;;;;5.22;2.40;;;30.50;70.90;;;;;;5032693;28;20101;-82
2022/08/31 12:26:49;;;;;;;4.63;2.72;;;30.20;71.70;;;;;;5040868;28;20014;-82
2022/08/31 12:29:28;;;;;;;5.63;2.50;;;29.80;71.10;;;;;;5041301;28;20042;-83
2022/08/31 12:32:08;;;;;;;5.15;2.50;;;29.40;71.50;;;;;;5041230;28;20045;-82
2022/08/31 12:34:49;;;;;;;4.78;2.65;;;29.50;71.90;;;;;;5040956;28;20025;-82
2022/08/31 12:37:21;;;;;;;4.20;2.92;;;29.60;71.30;;;;;;5040566;28;20025;-83
2022/08/31 12:39:46;;;;;;;5.15;2.55;;;30.10;71.00;;;;;;5022881;28;20022;-82
2022/08/31 12:42:12;;;;;;;5.82;2.20;;;30.90;70.60;;;;;;5039700;28;20136;-83
2022/08/31 12:44:50;;;;;;;5.68;2.70;;;31.30;70.30;;;;;;5023114;28;20062;-83
2022/08/31 12:47:54;;;;;;;2.33;2.13;;;31.30;70.10;;;;;;5023146;28;20030;-83
2022/08/31 12:50:38;;;;;;;4.15;2.65;;;31.00;69.00;;;;;;5039687;28;20053;-84
2022/08/31 12:53:03;;;;;;;5.97;2.38;;;30.10;69.00;;;;;;5040222;28;20166;-85
2022/08/31 12:55:49;;;;;;;3.83;2.42;;;29.80;69.90;;;;;;5040157;28;20010;-84
2022/08/31 12:58:18;;;;;;;6.82;2.70;;;29.60;69.90;;;;;;5039855;28;20089;-84
2022/08/31 13:00:44;;;;;;;4.55;2.20;;;29.10;70.50;;;;;;5022983;28;20026;-83
2022/08/31 13:03:20;;;;;;;3.63;2.55;;;28.70;71.40;;;;;;5023161;28;20013;-84
2022/08/31 13:06:08;;;;;;;3.58;2.50;;;28.30;72.90;;;;;;5040120;28;20029;-83
2022/08/31 13:08:40;;;;;;;6.60;2.95;;;28.00;74.10;;;;;;5039715;28;20021;-83
2022/08/31 13:11:18;;;;;;;10.45;3.05;;;27.70;75.50;;;;;;5039625;28;20122;-82
2022/08/31 13:13:44;;;;;;;4.88;2.90;;;27.40;76.90;;;;;;5021621;28;20038;-81
2022/08/31 13:16:12;;;;;;;3.28;2.65;;;27.10;77.30;;;;;;5039845;28;20022;-82
2022/08/31 13:18:38;;;;;;;7.45;3.05;;;26.90;77.90;;;;;;5040244;28;20078;-83
2022/08/31 13:21:05;;;;;;;8.35;3.20;;;26.90;78.60;;;;;;5039658;28;20017;-83
2022/08/31 13:23:37;;;;;;;7.07;3.10;;;26.80;78.80;;;;;;5038712;28;20029;-84
2022/08/31 13:26:23;;;;;;;5.55;2.90;;;26.70;79.10;;;;;;5037627;28;20041;-80
2022/08/31 13:28:57;;;;;;;6.30;3.10;;;26.50;79.10;;;;;;5038763;28;20026;-82
2022/08/31 13:31:34;;;;;;;3.83;2.90;;;26.30;79.40;;;;;;5037261;28;20059;-83
2022/08/31 13:34:06;;;;;;;3.65;2.28;;;26.30;79.30;;;;;;5039575;28;20044;-82
2022/08/31 13:36:38;;;;;;;4.80;2.90;;;26.20;79.70;;;;;;5038533;28;20033;-81
2022/08/31 13:39:11;;;;;;;6.90;3.17;;;26.00;80.40;;;;;;5038365;28;20021;-84
2022/08/31 13:41:41;;;;;;;3.92;2.53;;;25.90;80.50;;;;;;5022115;28;20022;-82